This is the latest recevied weather packets stored in our database for station/object N7NMS-13. If no packets are shown the sender has not sent any weather packets the latest 10 day(s).
| Time | Temp. | Humidity | Pressure | Rain* | Wind** | Luminosity | Snow |
|---|---|---|---|---|---|---|---|
| 1777780904 | 4.44° C | 84% | - | 0 mm | - | - | - |
| 1777780274 | 3.33° C | 84% | - | 0 mm | - | - | - |
| 1777779674 | 3.33° C | 84% | - | 0 mm | - | - | - |
| 1777779074 | 3.89° C | 83% | - | 0 mm | - | - | - |
| 1777778474 | 3.89° C | 84% | - | 0 mm | - | - | - |
| 1777777874 | 3.89° C | 83% | - | 0 mm | - | - | - |
| 1777777274 | 4.44° C | 82% | - | 0 mm | - | - | - |
| 1777776644 | 4.44° C | 79% | - | 0 mm | - | - | - |
| 1777776044 | 5° C | 78% | - | 0 mm | - | - | - |
| 1777775444 | 5.56° C | 77% | - | 0 mm | - | - | - |
| 1777774844 | 5.56° C | 75% | - | 0 mm | - | - | - |
| 1777774244 | 5.56° C | 74% | - | 0 mm | - | - | - |
| 1777773644 | 6.11° C | 73% | - | 0 mm | - | - | - |
| 1777770614 | 6.67° C | 69% | - | 0 mm | - | - | - |
| 1777767554 | 7.78° C | 65% | - | 0 mm | - | - | - |
| 1777766924 | 7.78° C | 64% | - | 0 mm | - | - | - |
| 1777763864 | 8.89° C | 59% | - | 0 mm | - | - | - |
| 1777761434 | 10° C | 58% | - | 0 mm | - | - | - |
| 1777760834 | 9.44° C | 57% | - | 0 mm | - | - | - |
| 1777760234 | 9.44° C | 56% | - | 0 mm | - | - | - |
| 1777757804 | 10° C | 55% | - | 0 mm | - | - | - |
| 1777757174 | 10.56° C | 52% | - | 0 mm | - | - | - |
| 1777756574 | 10° C | 54% | - | 0 mm | - | - | - |
| 1777755944 | 10° C | 56% | - | 0 mm | - | - | - |
| 1777755344 | 9.44° C | 54% | - | 0 mm | - | - | - |
* Rain latest hour (hover to see other rain measurements)
** Current wind speed in m/s (hover to see current wind gust speed)